sensor_id;sensor_type;location;lat;lon;timestamp;temperature;humidity
4962;DHT22;2496;52.468;13.342;2022-12-18T00:01:15;-4.60;99.90
4962;DHT22;2496;52.468;13.342;2022-12-18T00:03:43;-4.60;99.90
4962;DHT22;2496;52.468;13.342;2022-12-18T00:06:11;-4.60;99.90
4962;DHT22;2496;52.468;13.342;2022-12-18T00:08:39;-4.70;99.90
4962;DHT22;2496;52.468;13.342;2022-12-18T00:11:10;-4.70;99.90
4962;DHT22;2496;52.468;13.342;2022-12-18T00:13:39;-4.80;99.90
4962;DHT22;2496;52.468;13.342;2022-12-18T00:16:09;-4.80;99.90
4962;DHT22;2496;52.468;13.342;2022-12-18T00:18:36;-4.90;99.90
4962;DHT22;2496;52.468;13.342;2022-12-18T00:21:06;-5.00;99.90
4962;DHT22;2496;52.468;13.342;2022-12-18T00:23:34;-5.10;99.90
4962;DHT22;2496;52.468;13.342;2022-12-18T00:26:02;-5.10;99.90
4962;DHT22;2496;52.468;13.342;2022-12-18T00:28:29;-5.10;99.90
4962;DHT22;2496;52.468;13.342;2022-12-18T00:31:01;-5.20;99.90
4962;DHT22;2496;52.468;13.342;2022-12-18T00:33:29;-5.20;99.90
4962;DHT22;2496;52.468;13.342;2022-12-18T00:36:00;-5.10;99.90
4962;DHT22;2496;52.468;13.342;2022-12-18T00:38:27;-5.00;99.90
4962;DHT22;2496;52.468;13.342;2022-12-18T00:40:57;-4.90;99.90
4962;DHT22;2496;52.468;13.342;2022-12-18T00:43:24;-4.90;99.90
4962;DHT22;2496;52.468;13.342;2022-12-18T00:45:50;-4.90;99.90
4962;DHT22;2496;52.468;13.342;2022-12-18T00:48:19;-5.00;99.90
4962;DHT22;2496;52.468;13.342;2022-12-18T00:50:47;-5.00;99.90
4962;DHT22;2496;52.468;13.342;2022-12-18T00:53:15;-5.00;99.90
4962;DHT22;2496;52.468;13.342;2022-12-18T00:55:45;-5.10;99.90
4962;DHT22;2496;52.468;13.342;2022-12-18T00:58:14;-5.00;99.90
4962;DHT22;2496;52.468;13.342;2022-12-18T01:00:42;-5.00;99.90
4962;DHT22;2496;52.468;13.342;2022-12-18T01:03:10;-5.00;99.90
4962;DHT22;2496;52.468;13.342;2022-12-18T01:05:41;-5.00;99.90
4962;DHT22;2496;52.468;13.342;2022-12-18T01:08:09;-5.10;99.90
4962;DHT22;2496;52.468;13.342;2022-12-18T01:10:36;-5.00;99.90
4962;DHT22;2496;52.468;13.342;2022-12-18T01:13:03;-5.10;99.90
4962;DHT22;2496;52.468;13.342;2022-12-18T01:15:31;-5.10;99.90
4962;DHT22;2496;52.468;13.342;2022-12-18T01:17:58;-5.00;99.90
4962;DHT22;2496;52.468;13.342;2022-12-18T01:20:25;-5.10;99.90
4962;DHT22;2496;52.468;13.342;2022-12-18T01:22:53;-5.10;99.90
4962;DHT22;2496;52.468;13.342;2022-12-18T01:25:20;-5.20;99.90
4962;DHT22;2496;52.468;13.342;2022-12-18T01:27:48;-5.20;99.90
4962;DHT22;2496;52.468;13.342;2022-12-18T01:30:15;-5.20;99.90
4962;DHT22;2496;52.468;13.342;2022-12-18T01:32:42;-5.20;99.90
4962;DHT22;2496;52.468;13.342;2022-12-18T01:35:09;-5.20;99.90
4962;DHT22;2496;52.468;13.342;2022-12-18T01:37:36;-5.20;99.90
4962;DHT22;2496;52.468;13.342;2022-12-18T01:40:07;-5.20;99.90
4962;DHT22;2496;52.468;13.342;2022-12-18T01:42:34;-5.10;99.90
4962;DHT22;2496;52.468;13.342;2022-12-18T01:45:21;-5.10;99.90
4962;DHT22;2496;52.468;13.342;2022-12-18T01:47:52;-5.00;99.90
4962;DHT22;2496;52.468;13.342;2022-12-18T01:50:21;-5.00;99.90
4962;DHT22;2496;52.468;13.342;2022-12-18T01:52:51;-5.00;99.90
4962;DHT22;2496;52.468;13.342;2022-12-18T01:55:23;-5.00;99.90
4962;DHT22;2496;52.468;13.342;2022-12-18T01:57:52;-5.00;99.90
4962;DHT22;2496;52.468;13.342;2022-12-18T02:00:22;-5.00;99.90
4962;DHT22;2496;52.468;13.342;2022-12-18T02:02:50;-5.00;99.90
4962;DHT22;2496;52.468;13.342;2022-12-18T02:05:19;-5.10;99.90
4962;DHT22;2496;52.468;13.342;2022-12-18T02:07:58;-5.10;99.90
4962;DHT22;2496;52.468;13.342;2022-12-18T02:10:36;-5.10;99.90
4962;DHT22;2496;52.468;13.342;2022-12-18T02:13:12;-5.10;99.90
4962;DHT22;2496;52.468;13.342;2022-12-18T02:15:46;-5.10;99.90
4962;DHT22;2496;52.468;13.342;2022-12-18T02:18:19;-5.10;99.90
4962;DHT22;2496;52.468;13.342;2022-12-18T02:20:52;-5.10;99.90
4962;DHT22;2496;52.468;13.342;2022-12-18T02:23:41;-5.10;99.90
4962;DHT22;2496;52.468;13.342;2022-12-18T02:26:18;-5.10;99.90
4962;DHT22;2496;52.468;13.342;2022-12-18T02:28:47;-5.10;99.90
4962;DHT22;2496;52.468;13.342;2022-12-18T02:31:19;-5.10;99.90
4962;DHT22;2496;52.468;13.342;2022-12-18T02:33:49;-5.00;99.90
4962;DHT22;2496;52.468;13.342;2022-12-18T02:36:19;-5.00;99.90
4962;DHT22;2496;52.468;13.342;2022-12-18T02:38:48;-5.10;99.90
4962;DHT22;2496;52.468;13.342;2022-12-18T02:41:18;-5.10;99.90
4962;DHT22;2496;52.468;13.342;2022-12-18T02:43:52;-5.10;99.90
4962;DHT22;2496;52.468;13.342;2022-12-18T02:46:33;-5.10;99.90
4962;DHT22;2496;52.468;13.342;2022-12-18T02:49:06;-5.20;99.90
4962;DHT22;2496;52.468;13.342;2022-12-18T02:51:45;-5.20;99.90
4962;DHT22;2496;52.468;13.342;2022-12-18T02:54:24;-5.20;99.90
4962;DHT22;2496;52.468;13.342;2022-12-18T02:56:58;-5.10;99.90
4962;DHT22;2496;52.468;13.342;2022-12-18T02:59:36;-5.10;99.90
4962;DHT22;2496;52.468;13.342;2022-12-18T03:02:11;-5.20;99.90
4962;DHT22;2496;52.468;13.342;2022-12-18T03:04:46;-5.20;99.90
4962;DHT22;2496;52.468;13.342;2022-12-18T03:07:18;-5.30;99.90
4962;DHT22;2496;52.468;13.342;2022-12-18T03:09:50;-5.30;99.90
4962;DHT22;2496;52.468;13.342;2022-12-18T03:12:20;-5.30;99.90
4962;DHT22;2496;52.468;13.342;2022-12-18T03:14:54;-5.30;99.90
4962;DHT22;2496;52.468;13.342;2022-12-18T03:17:25;-5.30;99.90
4962;DHT22;2496;52.468;13.342;2022-12-18T03:19:56;-5.30;99.90
4962;DHT22;2496;52.468;13.342;2022-12-18T03:22:27;-5.30;99.90
4962;DHT22;2496;52.468;13.342;2022-12-18T03:24:56;-5.30;99.90
4962;DHT22;2496;52.468;13.342;2022-12-18T03:27:28;-5.40;99.90
4962;DHT22;2496;52.468;13.342;2022-12-18T03:30:03;-5.40;99.90
4962;DHT22;2496;52.468;13.342;2022-12-18T03:32:38;-5.40;99.90
4962;DHT22;2496;52.468;13.342;2022-12-18T03:35:08;-5.40;99.90
4962;DHT22;2496;52.468;13.342;2022-12-18T03:37:38;-5.50;99.90
4962;DHT22;2496;52.468;13.342;2022-12-18T03:40:06;-5.50;99.90
4962;DHT22;2496;52.468;13.342;2022-12-18T03:42:42;-5.50;99.90
4962;DHT22;2496;52.468;13.342;2022-12-18T03:45:15;-5.60;99.90
4962;DHT22;2496;52.468;13.342;2022-12-18T03:47:55;-5.60;99.90
4962;DHT22;2496;52.468;13.342;2022-12-18T03:50:33;-5.60;99.90
4962;DHT22;2496;52.468;13.342;2022-12-18T03:53:10;-5.60;99.90
4962;DHT22;2496;52.468;13.342;2022-12-18T03:55:41;-5.60;99.90
4962;DHT22;2496;52.468;13.342;2022-12-18T03:58:13;-5.60;99.90
4962;DHT22;2496;52.468;13.342;2022-12-18T04:00:43;-5.60;99.90
4962;DHT22;2496;52.468;13.342;2022-12-18T04:03:11;-5.60;99.90
4962;DHT22;2496;52.468;13.342;2022-12-18T04:05:39;-5.50;99.90
4962;DHT22;2496;52.468;13.342;2022-12-18T04:08:07;-5.60;99.90
4962;DHT22;2496;52.468;13.342;2022-12-18T04:10:35;-5.60;99.90
4962;DHT22;2496;52.468;13.342;2022-12-18T04:13:02;-5.50;99.90
4962;DHT22;2496;52.468;13.342;2022-12-18T04:15:32;-5.60;99.90
4962;DHT22;2496;52.468;13.342;2022-12-18T04:18:02;-5.60;99.90
4962;DHT22;2496;52.468;13.342;2022-12-18T04:20:29;-5.70;99.90
4962;DHT22;2496;52.468;13.342;2022-12-18T04:22:57;-5.70;99.90
4962;DHT22;2496;52.468;13.342;2022-12-18T04:25:24;-5.60;99.90
4962;DHT22;2496;52.468;13.342;2022-12-18T04:27:52;-5.60;99.90
4962;DHT22;2496;52.468;13.342;2022-12-18T04:30:19;-5.70;99.90
4962;DHT22;2496;52.468;13.342;2022-12-18T04:32:48;-5.70;99.90
4962;DHT22;2496;52.468;13.342;2022-12-18T04:35:15;-5.60;99.90
4962;DHT22;2496;52.468;13.342;2022-12-18T04:37:42;-5.60;99.90
4962;DHT22;2496;52.468;13.342;2022-12-18T04:40:11;-5.60;99.90
4962;DHT22;2496;52.468;13.342;2022-12-18T04:42:39;-5.70;99.90
4962;DHT22;2496;52.468;13.342;2022-12-18T04:45:07;-5.70;99.90
4962;DHT22;2496;52.468;13.342;2022-12-18T04:47:34;-5.70;99.90
4962;DHT22;2496;52.468;13.342;2022-12-18T04:50:04;-5.80;99.90
4962;DHT22;2496;52.468;13.342;2022-12-18T04:52:31;-5.70;99.90
4962;DHT22;2496;52.468;13.342;2022-12-18T04:54:58;-5.80;99.90
4962;DHT22;2496;52.468;13.342;2022-12-18T04:57:26;-5.80;99.90
4962;DHT22;2496;52.468;13.342;2022-12-18T04:59:53;-5.80;99.90
4962;DHT22;2496;52.468;13.342;2022-12-18T05:02:20;-5.80;99.90
4962;DHT22;2496;52.468;13.342;2022-12-18T05:04:47;-5.70;99.90
4962;DHT22;2496;52.468;13.342;2022-12-18T05:07:16;-5.80;99.90
4962;DHT22;2496;52.468;13.342;2022-12-18T05:09:43;-5.70;99.90
4962;DHT22;2496;52.468;13.342;2022-12-18T05:12:10;-5.70;99.90
4962;DHT22;2496;52.468;13.342;2022-12-18T05:14:38;-5.70;99.90
4962;DHT22;2496;52.468;13.342;2022-12-18T05:17:05;-5.70;99.90
4962;DHT22;2496;52.468;13.342;2022-12-18T05:19:32;-5.80;99.90
4962;DHT22;2496;52.468;13.342;2022-12-18T05:21:59;-5.80;99.90
4962;DHT22;2496;52.468;13.342;2022-12-18T05:24:28;-5.70;99.90
4962;DHT22;2496;52.468;13.342;2022-12-18T05:27:00;-5.70;99.90
4962;DHT22;2496;52.468;13.342;2022-12-18T05:29:30;-5.60;99.90
4962;DHT22;2496;52.468;13.342;2022-12-18T05:31:57;-5.60;99.90
4962;DHT22;2496;52.468;13.342;2022-12-18T05:34:24;-5.60;99.90
4962;DHT22;2496;52.468;13.342;2022-12-18T05:36:51;-5.60;99.90
4962;DHT22;2496;52.468;13.342;2022-12-18T05:39:19;-5.60;99.90
4962;DHT22;2496;52.468;13.342;2022-12-18T05:41:48;-5.60;99.90
4962;DHT22;2496;52.468;13.342;2022-12-18T05:44:15;-5.60;99.90
4962;DHT22;2496;52.468;13.342;2022-12-18T05:46:42;-5.60;99.90
4962;DHT22;2496;52.468;13.342;2022-12-18T05:49:10;-5.60;99.90
4962;DHT22;2496;52.468;13.342;2022-12-18T05:51:37;-5.60;99.90
4962;DHT22;2496;52.468;13.342;2022-12-18T05:54:04;-5.60;99.90
4962;DHT22;2496;52.468;13.342;2022-12-18T05:56:31;-5.60;99.90
4962;DHT22;2496;52.468;13.342;2022-12-18T05:59:00;-5.60;99.90
4962;DHT22;2496;52.468;13.342;2022-12-18T06:01:27;-5.50;99.90
4962;DHT22;2496;52.468;13.342;2022-12-18T06:03:54;-5.60;99.90
4962;DHT22;2496;52.468;13.342;2022-12-18T06:06:24;-5.60;99.90
4962;DHT22;2496;52.468;13.342;2022-12-18T06:08:52;-5.60;99.90
4962;DHT22;2496;52.468;13.342;2022-12-18T06:11:22;-5.60;99.90
4962;DHT22;2496;52.468;13.342;2022-12-18T06:13:50;-5.60;99.90
4962;DHT22;2496;52.468;13.342;2022-12-18T06:16:20;-5.60;99.90
4962;DHT22;2496;52.468;13.342;2022-12-18T06:18:47;-5.50;99.90
4962;DHT22;2496;52.468;13.342;2022-12-18T06:21:14;-5.50;99.90
4962;DHT22;2496;52.468;13.342;2022-12-18T06:23:41;-5.50;99.90
4962;DHT22;2496;52.468;13.342;2022-12-18T06:26:10;-5.50;99.90
4962;DHT22;2496;52.468;13.342;2022-12-18T06:28:38;-5.50;99.90
4962;DHT22;2496;52.468;13.342;2022-12-18T06:31:06;-5.50;99.90
4962;DHT22;2496;52.468;13.342;2022-12-18T06:33:35;-5.50;99.90
4962;DHT22;2496;52.468;13.342;2022-12-18T06:36:04;-5.50;99.90
4962;DHT22;2496;52.468;13.342;2022-12-18T06:38:32;-5.60;99.90
4962;DHT22;2496;52.468;13.342;2022-12-18T06:40:59;-5.60;99.90
4962;DHT22;2496;52.468;13.342;2022-12-18T06:43:26;-5.60;99.90
4962;DHT22;2496;52.468;13.342;2022-12-18T06:45:59;-5.60;99.90
4962;DHT22;2496;52.468;13.342;2022-12-18T06:48:26;-5.60;99.90
4962;DHT22;2496;52.468;13.342;2022-12-18T06:50:55;-5.50;99.90
4962;DHT22;2496;52.468;13.342;2022-12-18T06:53:22;-5.50;99.90
4962;DHT22;2496;52.468;13.342;2022-12-18T06:55:50;-5.50;99.90
4962;DHT22;2496;52.468;13.342;2022-12-18T06:58:17;-5.50;99.90
4962;DHT22;2496;52.468;13.342;2022-12-18T07:00:44;-5.40;99.90
4962;DHT22;2496;52.468;13.342;2022-12-18T07:03:11;-5.40;99.90
4962;DHT22;2496;52.468;13.342;2022-12-18T07:05:40;-5.40;99.90
4962;DHT22;2496;52.468;13.342;2022-12-18T07:08:09;-5.40;99.90
4962;DHT22;2496;52.468;13.342;2022-12-18T07:10:41;-5.40;99.90
4962;DHT22;2496;52.468;13.342;2022-12-18T07:13:08;-5.50;99.90
4962;DHT22;2496;52.468;13.342;2022-12-18T07:15:35;-5.50;99.90
4962;DHT22;2496;52.468;13.342;2022-12-18T07:18:02;-5.40;99.90
4962;DHT22;2496;52.468;13.342;2022-12-18T07:20:29;-5.50;99.90
4962;DHT22;2496;52.468;13.342;2022-12-18T07:22:56;-5.50;99.90
4962;DHT22;2496;52.468;13.342;2022-12-18T07:25:24;-5.50;99.90
4962;DHT22;2496;52.468;13.342;2022-12-18T07:27:51;-5.40;99.90
4962;DHT22;2496;52.468;13.342;2022-12-18T07:30:18;-5.40;99.90
4962;DHT22;2496;52.468;13.342;2022-12-18T07:32:45;-5.40;99.90
4962;DHT22;2496;52.468;13.342;2022-12-18T07:35:12;-5.40;99.90
4962;DHT22;2496;52.468;13.342;2022-12-18T07:37:39;-5.40;99.90
4962;DHT22;2496;52.468;13.342;2022-12-18T07:40:08;-5.40;99.90
4962;DHT22;2496;52.468;13.342;2022-12-18T07:42:36;-5.40;99.90
4962;DHT22;2496;52.468;13.342;2022-12-18T07:45:04;-5.50;99.90
4962;DHT22;2496;52.468;13.342;2022-12-18T07:47:34;-5.40;99.90
4962;DHT22;2496;52.468;13.342;2022-12-18T07:50:01;-5.50;99.90
4962;DHT22;2496;52.468;13.342;2022-12-18T07:52:28;-5.40;99.90
4962;DHT22;2496;52.468;13.342;2022-12-18T07:54:55;-5.40;99.90
4962;DHT22;2496;52.468;13.342;2022-12-18T07:57:22;-5.40;99.90
4962;DHT22;2496;52.468;13.342;2022-12-18T07:59:50;-5.40;99.90
4962;DHT22;2496;52.468;13.342;2022-12-18T08:02:17;-5.40;99.90
4962;DHT22;2496;52.468;13.342;2022-12-18T08:04:44;-5.40;99.90
4962;DHT22;2496;52.468;13.342;2022-12-18T08:07:11;-5.40;99.90
4962;DHT22;2496;52.468;13.342;2022-12-18T08:09:38;-5.40;99.90
4962;DHT22;2496;52.468;13.342;2022-12-18T08:12:05;-5.40;99.90
4962;DHT22;2496;52.468;13.342;2022-12-18T08:14:32;-5.30;99.90
4962;DHT22;2496;52.468;13.342;2022-12-18T08:17:01;-5.30;99.90
4962;DHT22;2496;52.468;13.342;2022-12-18T08:19:28;-5.30;99.90
4962;DHT22;2496;52.468;13.342;2022-12-18T08:21:55;-5.40;99.90
4962;DHT22;2496;52.468;13.342;2022-12-18T08:24:22;-5.30;99.90
4962;DHT22;2496;52.468;13.342;2022-12-18T08:26:49;-5.30;99.90
4962;DHT22;2496;52.468;13.342;2022-12-18T08:29:16;-5.30;99.90
4962;DHT22;2496;52.468;13.342;2022-12-18T08:31:43;-5.40;99.90
4962;DHT22;2496;52.468;13.342;2022-12-18T08:34:11;-5.30;99.90
4962;DHT22;2496;52.468;13.342;2022-12-18T08:36:38;-5.20;99.90
4962;DHT22;2496;52.468;13.342;2022-12-18T08:39:05;-5.20;99.90
4962;DHT22;2496;52.468;13.342;2022-12-18T08:41:32;-5.10;99.90
4962;DHT22;2496;52.468;13.342;2022-12-18T08:43:59;-5.10;99.90
4962;DHT22;2496;52.468;13.342;2022-12-18T08:46:44;-5.10;99.90
4962;DHT22;2496;52.468;13.342;2022-12-18T08:49:12;-5.20;99.90
4962;DHT22;2496;52.468;13.342;2022-12-18T08:51:39;-5.20;99.90
4962;DHT22;2496;52.468;13.342;2022-12-18T08:54:06;-5.20;99.90
4962;DHT22;2496;52.468;13.342;2022-12-18T08:56:34;-5.20;99.90
4962;DHT22;2496;52.468;13.342;2022-12-18T08:59:01;-5.30;99.90
4962;DHT22;2496;52.468;13.342;2022-12-18T09:01:28;-5.30;99.90
4962;DHT22;2496;52.468;13.342;2022-12-18T09:03:55;-5.30;99.90
4962;DHT22;2496;52.468;13.342;2022-12-18T09:06:23;-5.30;99.90
4962;DHT22;2496;52.468;13.342;2022-12-18T09:08:52;-5.30;99.90
4962;DHT22;2496;52.468;13.342;2022-12-18T09:11:21;-5.20;99.90
4962;DHT22;2496;52.468;13.342;2022-12-18T09:13:49;-5.10;99.90
4962;DHT22;2496;52.468;13.342;2022-12-18T09:16:16;-5.10;99.90
4962;DHT22;2496;52.468;13.342;2022-12-18T09:18:43;-5.10;99.90
4962;DHT22;2496;52.468;13.342;2022-12-18T09:21:12;-5.00;99.90
4962;DHT22;2496;52.468;13.342;2022-12-18T09:23:41;-5.00;99.90
4962;DHT22;2496;52.468;13.342;2022-12-18T09:26:08;-5.00;99.90
4962;DHT22;2496;52.468;13.342;2022-12-18T09:28:35;-5.00;99.90
4962;DHT22;2496;52.468;13.342;2022-12-18T09:31:07;-5.00;99.90
4962;DHT22;2496;52.468;13.342;2022-12-18T09:33:34;-5.00;99.90
4962;DHT22;2496;52.468;13.342;2022-12-18T09:36:04;-5.00;99.90
4962;DHT22;2496;52.468;13.342;2022-12-18T09:38:33;-4.90;99.90
4962;DHT22;2496;52.468;13.342;2022-12-18T09:41:05;-5.00;99.90
4962;DHT22;2496;52.468;13.342;2022-12-18T09:43:36;-5.00;99.90
4962;DHT22;2496;52.468;13.342;2022-12-18T09:46:09;-4.90;99.90
4962;DHT22;2496;52.468;13.342;2022-12-18T09:48:41;-4.90;99.90
4962;DHT22;2496;52.468;13.342;2022-12-18T09:51:13;-4.90;99.90
4962;DHT22;2496;52.468;13.342;2022-12-18T09:53:46;-4.90;99.90
4962;DHT22;2496;52.468;13.342;2022-12-18T09:56:18;-5.00;99.90
4962;DHT22;2496;52.468;13.342;2022-12-18T09:58:51;-5.00;99.90
4962;DHT22;2496;52.468;13.342;2022-12-18T10:01:22;-5.00;99.90
4962;DHT22;2496;52.468;13.342;2022-12-18T10:03:50;-5.00;99.90
4962;DHT22;2496;52.468;13.342;2022-12-18T10:06:21;-4.90;99.90
4962;DHT22;2496;52.468;13.342;2022-12-18T10:08:54;-4.80;99.90
4962;DHT22;2496;52.468;13.342;2022-12-18T10:11:34;-4.80;99.90
4962;DHT22;2496;52.468;13.342;2022-12-18T10:14:09;-4.70;99.90
4962;DHT22;2496;52.468;13.342;2022-12-18T10:16:47;-4.70;99.90
4962;DHT22;2496;52.468;13.342;2022-12-18T10:19:30;-4.60;99.90
4962;DHT22;2496;52.468;13.342;2022-12-18T10:22:08;-4.60;99.90
4962;DHT22;2496;52.468;13.342;2022-12-18T10:24:42;-4.50;99.90
4962;DHT22;2496;52.468;13.342;2022-12-18T10:27:16;-4.50;99.90
4962;DHT22;2496;52.468;13.342;2022-12-18T10:29:44;-4.40;99.90
4962;DHT22;2496;52.468;13.342;2022-12-18T10:32:14;-4.40;99.90
4962;DHT22;2496;52.468;13.342;2022-12-18T10:34:45;-4.30;99.90
4962;DHT22;2496;52.468;13.342;2022-12-18T10:37:15;-4.30;99.90
4962;DHT22;2496;52.468;13.342;2022-12-18T10:39:43;-4.30;99.90
4962;DHT22;2496;52.468;13.342;2022-12-18T10:42:13;-4.30;99.90
4962;DHT22;2496;52.468;13.342;2022-12-18T10:44:44;-4.30;99.90
4962;DHT22;2496;52.468;13.342;2022-12-18T10:47:14;-4.30;99.90
4962;DHT22;2496;52.468;13.342;2022-12-18T10:49:49;-4.20;99.90
4962;DHT22;2496;52.468;13.342;2022-12-18T10:52:18;-4.20;99.90
4962;DHT22;2496;52.468;13.342;2022-12-18T10:54:51;-4.20;99.90
4962;DHT22;2496;52.468;13.342;2022-12-18T10:57:32;-4.20;99.90
4962;DHT22;2496;52.468;13.342;2022-12-18T11:00:20;-4.10;99.90
4962;DHT22;2496;52.468;13.342;2022-12-18T11:02:48;-4.10;99.90
4962;DHT22;2496;52.468;13.342;2022-12-18T11:05:27;-4.10;99.90
4962;DHT22;2496;52.468;13.342;2022-12-18T11:07:55;-4.00;99.90
4962;DHT22;2496;52.468;13.342;2022-12-18T11:10:26;-4.00;99.90
4962;DHT22;2496;52.468;13.342;2022-12-18T11:12:54;-4.00;99.90
4962;DHT22;2496;52.468;13.342;2022-12-18T11:15:26;-3.90;99.90
4962;DHT22;2496;52.468;13.342;2022-12-18T11:17:55;-3.90;99.90
4962;DHT22;2496;52.468;13.342;2022-12-18T11:20:31;-3.80;99.90
4962;DHT22;2496;52.468;13.342;2022-12-18T11:23:00;-3.80;99.90
4962;DHT22;2496;52.468;13.342;2022-12-18T11:25:28;-3.90;99.90
4962;DHT22;2496;52.468;13.342;2022-12-18T11:27:56;-3.80;99.90
4962;DHT22;2496;52.468;13.342;2022-12-18T11:30:27;-3.80;99.90
4962;DHT22;2496;52.468;13.342;2022-12-18T11:33:04;-3.80;99.90
4962;DHT22;2496;52.468;13.342;2022-12-18T11:35:39;-3.80;99.90
4962;DHT22;2496;52.468;13.342;2022-12-18T11:38:16;-3.80;99.90
4962;DHT22;2496;52.468;13.342;2022-12-18T11:40:50;-3.70;99.90
4962;DHT22;2496;52.468;13.342;2022-12-18T11:43:22;-3.80;99.90
4962;DHT22;2496;52.468;13.342;2022-12-18T11:45:55;-3.70;99.90
4962;DHT22;2496;52.468;13.342;2022-12-18T11:48:26;-3.80;99.90
4962;DHT22;2496;52.468;13.342;2022-12-18T11:50:56;-3.80;99.90
4962;DHT22;2496;52.468;13.342;2022-12-18T11:53:24;-3.80;99.90
4962;DHT22;2496;52.468;13.342;2022-12-18T11:56:04;-3.80;99.90
4962;DHT22;2496;52.468;13.342;2022-12-18T11:58:44;-3.80;99.90
4962;DHT22;2496;52.468;13.342;2022-12-18T12:01:31;-3.80;99.90
4962;DHT22;2496;52.468;13.342;2022-12-18T12:07:04;-3.80;99.90
4962;DHT22;2496;52.468;13.342;2022-12-18T12:09:37;-3.80;99.90
4962;DHT22;2496;52.468;13.342;2022-12-18T12:12:22;-3.80;99.90
4962;DHT22;2496;52.468;13.342;2022-12-18T12:14:59;-3.70;99.90
4962;DHT22;2496;52.468;13.342;2022-12-18T12:17:36;-3.70;99.90
4962;DHT22;2496;52.468;13.342;2022-12-18T12:20:11;-3.70;99.90
4962;DHT22;2496;52.468;13.342;2022-12-18T12:22:45;-3.60;99.90
4962;DHT22;2496;52.468;13.342;2022-12-18T12:25:21;-3.60;99.90
4962;DHT22;2496;52.468;13.342;2022-12-18T12:27:58;-3.60;99.90
4962;DHT22;2496;52.468;13.342;2022-12-18T12:30:35;-3.60;99.90
4962;DHT22;2496;52.468;13.342;2022-12-18T12:33:16;-3.60;99.90
4962;DHT22;2496;52.468;13.342;2022-12-18T12:35:54;-3.60;99.90
4962;DHT22;2496;52.468;13.342;2022-12-18T12:38:24;-3.50;99.90
4962;DHT22;2496;52.468;13.342;2022-12-18T12:40:58;-3.50;99.90
4962;DHT22;2496;52.468;13.342;2022-12-18T12:43:33;-3.50;99.90
4962;DHT22;2496;52.468;13.342;2022-12-18T12:46:04;-3.60;99.90
4962;DHT22;2496;52.468;13.342;2022-12-18T12:48:39;-3.50;99.90
4962;DHT22;2496;52.468;13.342;2022-12-18T12:51:12;-3.50;99.90
4962;DHT22;2496;52.468;13.342;2022-12-18T12:53:41;-3.50;99.90
4962;DHT22;2496;52.468;13.342;2022-12-18T12:56:10;-3.50;99.90
4962;DHT22;2496;52.468;13.342;2022-12-18T12:58:44;-3.50;99.90
4962;DHT22;2496;52.468;13.342;2022-12-18T13:01:18;-3.50;99.90
4962;DHT22;2496;52.468;13.342;2022-12-18T13:03:58;-3.40;99.90
4962;DHT22;2496;52.468;13.342;2022-12-18T13:06:40;-3.50;99.90
4962;DHT22;2496;52.468;13.342;2022-12-18T13:09:09;-3.50;99.90
4962;DHT22;2496;52.468;13.342;2022-12-18T13:11:38;-3.50;99.90
4962;DHT22;2496;52.468;13.342;2022-12-18T13:14:25;-3.50;99.90
4962;DHT22;2496;52.468;13.342;2022-12-18T13:17:14;-3.50;99.90
4962;DHT22;2496;52.468;13.342;2022-12-18T13:19:43;-3.50;99.90
4962;DHT22;2496;52.468;13.342;2022-12-18T13:22:21;-3.50;99.90
4962;DHT22;2496;52.468;13.342;2022-12-18T13:24:49;-3.50;99.90
4962;DHT22;2496;52.468;13.342;2022-12-18T13:27:45;-3.50;99.90
4962;DHT22;2496;52.468;13.342;2022-12-18T13:30:41;-3.50;99.90
4962;DHT22;2496;52.468;13.342;2022-12-18T13:33:37;-3.50;99.90
4962;DHT22;2496;52.468;13.342;2022-12-18T13:36:15;-3.50;99.90
4962;DHT22;2496;52.468;13.342;2022-12-18T13:38:43;-3.50;99.90
4962;DHT22;2496;52.468;13.342;2022-12-18T13:41:24;-3.50;99.90
4962;DHT22;2496;52.468;13.342;2022-12-18T13:43:52;-3.50;99.90
4962;DHT22;2496;52.468;13.342;2022-12-18T13:46:22;-3.40;99.90
4962;DHT22;2496;52.468;13.342;2022-12-18T13:48:52;-3.40;99.90
4962;DHT22;2496;52.468;13.342;2022-12-18T13:51:23;-3.40;99.90
4962;DHT22;2496;52.468;13.342;2022-12-18T13:53:52;-3.40;99.90
4962;DHT22;2496;52.468;13.342;2022-12-18T13:56:24;-3.30;99.90
4962;DHT22;2496;52.468;13.342;2022-12-18T13:59:10;-3.40;99.90
4962;DHT22;2496;52.468;13.342;2022-12-18T14:01:46;-3.40;99.90
4962;DHT22;2496;52.468;13.342;2022-12-18T14:04:23;-3.50;99.90
4962;DHT22;2496;52.468;13.342;2022-12-18T14:06:57;-3.60;99.90
4962;DHT22;2496;52.468;13.342;2022-12-18T14:09:29;-3.60;99.90
4962;DHT22;2496;52.468;13.342;2022-12-18T14:12:00;-3.60;99.90
4962;DHT22;2496;52.468;13.342;2022-12-18T14:14:44;-3.60;99.90
4962;DHT22;2496;52.468;13.342;2022-12-18T14:17:15;-3.60;99.90
4962;DHT22;2496;52.468;13.342;2022-12-18T14:19:46;-3.60;99.90
4962;DHT22;2496;52.468;13.342;2022-12-18T14:22:18;-3.60;99.90
4962;DHT22;2496;52.468;13.342;2022-12-18T14:24:46;-3.60;99.90
4962;DHT22;2496;52.468;13.342;2022-12-18T14:27:20;-3.50;99.90
4962;DHT22;2496;52.468;13.342;2022-12-18T14:29:48;-3.60;99.90
4962;DHT22;2496;52.468;13.342;2022-12-18T14:32:17;-3.60;99.90
4962;DHT22;2496;52.468;13.342;2022-12-18T14:34:45;-3.60;99.90
4962;DHT22;2496;52.468;13.342;2022-12-18T14:37:14;-3.60;99.90
4962;DHT22;2496;52.468;13.342;2022-12-18T14:39:56;-3.70;99.90
4962;DHT22;2496;52.468;13.342;2022-12-18T14:42:24;-3.60;99.90
4962;DHT22;2496;52.468;13.342;2022-12-18T14:47:52;-3.60;99.90
4962;DHT22;2496;52.468;13.342;2022-12-18T14:50:19;-3.60;99.90
4962;DHT22;2496;52.468;13.342;2022-12-18T14:52:46;-3.60;99.90
4962;DHT22;2496;52.468;13.342;2022-12-18T14:55:17;-3.60;99.90
4962;DHT22;2496;52.468;13.342;2022-12-18T14:57:45;-3.60;99.90
4962;DHT22;2496;52.468;13.342;2022-12-18T15:00:18;-3.60;99.90
4962;DHT22;2496;52.468;13.342;2022-12-18T15:02:47;-3.60;99.90
4962;DHT22;2496;52.468;13.342;2022-12-18T15:05:19;-3.60;99.90
4962;DHT22;2496;52.468;13.342;2022-12-18T15:07:48;-3.60;99.90
4962;DHT22;2496;52.468;13.342;2022-12-18T15:10:18;-3.60;99.90
4962;DHT22;2496;52.468;13.342;2022-12-18T15:12:47;-3.60;99.90
4962;DHT22;2496;52.468;13.342;2022-12-18T15:15:46;-3.70;99.90
4962;DHT22;2496;52.468;13.342;2022-12-18T15:18:15;-3.70;99.90
4962;DHT22;2496;52.468;13.342;2022-12-18T15:20:44;-3.70;99.90
4962;DHT22;2496;52.468;13.342;2022-12-18T15:23:16;-3.80;99.90
4962;DHT22;2496;52.468;13.342;2022-12-18T15:25:46;-3.80;99.90
4962;DHT22;2496;52.468;13.342;2022-12-18T15:28:22;-3.90;99.90
4962;DHT22;2496;52.468;13.342;2022-12-18T15:31:01;-3.90;99.90
4962;DHT22;2496;52.468;13.342;2022-12-18T15:33:32;-3.90;99.90
4962;DHT22;2496;52.468;13.342;2022-12-18T15:36:01;-3.90;99.90
4962;DHT22;2496;52.468;13.342;2022-12-18T15:38:28;-3.90;99.90
4962;DHT22;2496;52.468;13.342;2022-12-18T15:40:57;-3.90;99.90
4962;DHT22;2496;52.468;13.342;2022-12-18T15:43:26;-3.90;99.90
4962;DHT22;2496;52.468;13.342;2022-12-18T15:46:04;-3.90;99.90
4962;DHT22;2496;52.468;13.342;2022-12-18T15:48:33;-3.90;99.90
4962;DHT22;2496;52.468;13.342;2022-12-18T15:51:01;-3.90;99.90
4962;DHT22;2496;52.468;13.342;2022-12-18T15:53:31;-3.90;99.90
4962;DHT22;2496;52.468;13.342;2022-12-18T15:56:00;-3.90;99.90
4962;DHT22;2496;52.468;13.342;2022-12-18T15:58:45;-4.00;99.90
4962;DHT22;2496;52.468;13.342;2022-12-18T16:01:22;-4.00;99.90
4962;DHT22;2496;52.468;13.342;2022-12-18T16:03:49;-3.90;99.90
4962;DHT22;2496;52.468;13.342;2022-12-18T16:06:16;-3.90;99.90
4962;DHT22;2496;52.468;13.342;2022-12-18T16:08:43;-3.90;99.90
4962;DHT22;2496;52.468;13.342;2022-12-18T16:11:20;-3.90;99.90
4962;DHT22;2496;52.468;13.342;2022-12-18T16:14:04;-4.00;99.90